Time;durP1;ratioP1;P1;durP2;ratioP2;P2;SDS_P1;SDS_P2;PMS_P1;PMS_P2;Temp;Humidity;BMP_temperature;BMP_pressure;BME280_temperature;BME280_humidity;BME280_pressure;Samples;Min_cycle;Max_cycle;Signal;HPM_P1;HPM_P2
2022/06/23 00:01:35;;;;;;;33.30;29.10;;;19.50;99.90;;;;;;5028025;28;20429;-73
2022/06/23 00:04:00;;;;;;;37.70;28.60;;;19.70;99.90;;;;;;5008612;28;20821;-73
2022/06/23 00:06:38;;;;;;;36.60;27.17;;;19.40;99.90;;;;;;5022311;28;20459;-73
2022/06/23 00:09:40;;;;;;;36.13;26.60;;;19.30;99.90;;;;;;5030551;28;20185;-73
2022/06/23 00:12:12;;;;;;;34.43;27.47;;;19.30;99.90;;;;;;5005610;28;20448;-73
2022/06/23 00:14:37;;;;;;;36.27;27.53;;;19.30;99.90;;;;;;5010529;28;20440;-75
2022/06/23 00:17:28;;;;;;;36.90;28.67;;;19.30;99.90;;;;;;5031122;28;20910;-73
2022/06/23 00:19:55;;;;;;;35.57;27.27;;;19.20;99.90;;;;;;5025915;28;20191;-73
2022/06/23 00:22:25;;;;;;;36.97;28.50;;;19.10;99.90;;;;;;5025139;28;20440;-74
2022/06/23 00:24:55;;;;;;;35.00;28.47;;;19.10;99.90;;;;;;5026707;28;20642;-73
2022/06/23 00:27:25;;;;;;;36.10;29.47;;;19.10;99.90;;;;;;5031261;28;20416;-73
2022/06/23 00:29:51;;;;;;;40.17;31.10;;;19.00;99.90;;;;;;5026025;28;20530;-73
2022/06/23 00:32:16;;;;;;;36.53;30.37;;;19.10;99.90;;;;;;5029617;28;20412;-73
2022/06/23 00:34:50;;;;;;;37.27;29.03;;;19.10;99.90;;;;;;5023316;28;20257;-73
2022/06/23 00:37:20;;;;;;;38.40;28.43;;;19.00;99.90;;;;;;5030318;28;20193;-73
2022/06/23 00:39:51;;;;;;;37.40;29.93;;;19.10;99.90;;;;;;5026575;28;20900;-73
2022/06/23 00:42:21;;;;;;;35.30;29.00;;;19.00;99.90;;;;;;5029779;28;20429;-74
2022/06/23 00:45:19;;;;;;;40.87;28.63;;;19.00;99.90;;;;;;5018894;28;21207;-74
2022/06/23 00:47:48;;;;;;;36.97;27.47;;;19.10;99.90;;;;;;5031492;28;20931;-73
2022/06/23 00:50:35;;;;;;;41.40;30.00;;;19.10;99.90;;;;;;5026203;28;20437;-73
2022/06/23 00:53:20;;;;;;;34.90;28.30;;;19.10;99.90;;;;;;5024273;28;20420;-74
2022/06/23 00:55:58;;;;;;;38.90;29.23;;;19.10;99.90;;;;;;5027890;28;20487;-73
2022/06/23 00:58:34;;;;;;;38.60;28.23;;;19.10;99.90;;;;;;5031006;28;20437;-73
2022/06/23 01:01:11;;;;;;;34.80;28.07;;;19.00;99.90;;;;;;5021466;28;20491;-73
2022/06/23 01:03:47;;;;;;;35.60;27.93;;;19.00;99.90;;;;;;5010737;28;20445;-73
2022/06/23 01:06:27;;;;;;;39.47;29.10;;;18.90;99.90;;;;;;5026689;28;20523;-73
2022/06/23 01:09:09;;;;;;;39.00;29.63;;;18.80;99.90;;;;;;5023795;28;20534;-75
2022/06/23 01:11:50;;;;;;;41.23;29.10;;;18.70;99.90;;;;;;5028996;28;20523;-73
2022/06/23 01:14:38;;;;;;;34.20;26.47;;;18.70;99.90;;;;;;5026955;28;20443;-74
2022/06/23 01:17:13;;;;;;;35.17;28.33;;;18.70;99.90;;;;;;5013563;28;20883;-73
2022/06/23 01:19:50;;;;;;;34.40;27.23;;;18.60;99.90;;;;;;5016333;28;20954;-73
2022/06/23 01:22:38;;;;;;;37.50;26.00;;;18.70;99.90;;;;;;5029046;28;20906;-73
2022/06/23 01:25:27;;;;;;;30.30;24.83;;;18.50;99.90;;;;;;5020885;28;20435;-73
2022/06/23 01:28:17;;;;;;;31.87;25.23;;;18.40;99.90;;;;;;5025706;28;20449;-73
2022/06/23 01:31:02;;;;;;;30.00;23.87;;;18.40;99.90;;;;;;5022969;28;20891;-73
2022/06/23 01:33:41;;;;;;;34.30;25.60;;;18.30;99.90;;;;;;5026201;28;20525;-73
2022/06/23 01:36:32;;;;;;;31.00;23.97;;;18.20;99.90;;;;;;5020423;28;20464;-73
2022/06/23 01:39:03;;;;;;;31.33;24.00;;;18.10;99.90;;;;;;5024821;28;20452;-73
2022/06/23 01:41:48;;;;;;;30.60;24.77;;;18.10;99.90;;;;;;5022111;28;20436;-72
2022/06/23 01:44:21;;;;;;;38.23;25.87;;;18.00;99.90;;;;;;5025255;28;20440;-73
2022/06/23 01:46:52;;;;;;;32.73;25.80;;;17.90;99.90;;;;;;5020864;28;20452;-73
2022/06/23 01:49:41;;;;;;;38.37;25.70;;;18.00;99.90;;;;;;5026529;28;20441;-74
2022/06/23 01:52:13;;;;;;;34.30;25.40;;;18.00;99.90;;;;;;5025284;28;21062;-73
2022/06/23 01:54:39;;;;;;;30.63;24.80;;;18.00;99.90;;;;;;5017029;28;20428;-73
2022/06/23 01:57:34;;;;;;;31.37;23.60;;;18.00;99.90;;;;;;5020865;28;20468;-73
2022/06/23 02:00:07;;;;;;;32.87;24.87;;;18.10;99.90;;;;;;5027597;28;20436;-72
2022/06/23 02:02:46;;;;;;;30.10;23.50;;;18.10;99.90;;;;;;5023010;28;20449;-73
2022/06/23 02:05:21;;;;;;;31.27;24.30;;;18.20;99.90;;;;;;5013480;28;20451;-73
2022/06/23 02:08:21;;;;;;;30.50;24.33;;;18.10;99.90;;;;;;5025846;28;20446;-73
2022/06/23 02:10:53;;;;;;;29.07;24.33;;;18.10;99.90;;;;;;5025167;28;20865;-73
2022/06/23 02:13:40;;;;;;;30.60;23.90;;;18.20;99.90;;;;;;5028864;28;20452;-73
2022/06/23 02:16:28;;;;;;;28.97;23.40;;;18.10;99.90;;;;;;5020889;28;20460;-73
2022/06/23 02:19:03;;;;;;;33.93;22.63;;;18.20;99.90;;;;;;5024403;28;20439;-73
2022/06/23 02:21:42;;;;;;;29.20;23.57;;;18.20;99.90;;;;;;5016474;28;20436;-73
2022/06/23 02:24:21;;;;;;;27.33;23.47;;;18.20;99.90;;;;;;5020428;28;20488;-73
2022/06/23 02:27:14;;;;;;;29.47;22.50;;;18.20;99.90;;;;;;5018537;28;20546;-73
2022/06/23 02:29:48;;;;;;;29.10;23.20;;;18.20;99.90;;;;;;5031415;28;20435;-72
2022/06/23 02:32:23;;;;;;;29.50;23.23;;;18.20;99.90;;;;;;5020361;28;20420;-73
2022/06/23 02:35:08;;;;;;;29.87;22.30;;;18.30;99.90;;;;;;5025057;28;20930;-73
2022/06/23 02:37:48;;;;;;;31.10;22.53;;;18.20;99.90;;;;;;5028014;28;20511;-73
2022/06/23 02:40:29;;;;;;;29.93;22.03;;;18.20;99.90;;;;;;5022645;28;20536;-73
2022/06/23 02:43:27;;;;;;;36.97;22.30;;;18.10;99.90;;;;;;5022674;28;20520;-74
2022/06/23 02:46:24;;;;;;;27.63;21.90;;;18.00;99.90;;;;;;5027932;28;20451;-73
2022/06/23 02:49:02;;;;;;;24.37;20.93;;;18.00;99.90;;;;;;5025530;28;20989;-74
2022/06/23 02:51:44;;;;;;;23.80;20.40;;;17.90;99.90;;;;;;5027771;28;20515;-73
2022/06/23 02:54:25;;;;;;;26.63;20.40;;;17.90;99.90;;;;;;5023759;28;20459;-73
2022/06/23 02:57:13;;;;;;;22.80;19.80;;;17.80;99.90;;;;;;5025899;28;20464;-73
2022/06/23 02:59:49;;;;;;;24.60;20.50;;;17.80;99.90;;;;;;5017639;28;20552;-73
2022/06/23 03:02:21;;;;;;;21.73;19.10;;;17.80;99.90;;;;;;5037705;28;20462;-73
2022/06/23 03:04:50;;;;;;;23.90;18.60;;;17.80;99.90;;;;;;5022998;28;20793;-73
2022/06/23 03:07:48;;;;;;;27.90;20.83;;;17.70;99.90;;;;;;5027771;28;20466;-73
2022/06/23 03:10:18;;;;;;;23.97;19.40;;;17.70;99.90;;;;;;5020785;28;20444;-73
2022/06/23 03:12:50;;;;;;;27.33;21.47;;;17.80;99.90;;;;;;5023127;28;20438;-73
2022/06/23 03:15:25;;;;;;;22.70;19.93;;;17.70;99.90;;;;;;5022046;28;20427;-73
2022/06/23 03:18:18;;;;;;;25.30;20.70;;;17.70;99.90;;;;;;5024217;28;21007;-74
2022/06/23 03:20:59;;;;;;;32.23;19.97;;;17.70;99.90;;;;;;5026677;28;20997;-73
2022/06/23 03:23:46;;;;;;;25.63;20.53;;;17.90;99.90;;;;;;5021222;28;20499;-73
2022/06/23 03:26:25;;;;;;;23.67;19.90;;;17.60;99.90;;;;;;5024567;28;20555;-73
2022/06/23 03:29:11;;;;;;;24.43;18.90;;;17.50;99.90;;;;;;5022052;28;20540;-72
2022/06/23 03:31:49;;;;;;;22.80;18.87;;;17.50;99.90;;;;;;5029089;28;20437;-72
2022/06/23 03:34:20;;;;;;;26.17;19.97;;;17.50;99.90;;;;;;5016783;28;20420;-73
2022/06/23 03:36:52;;;;;;;28.37;20.73;;;17.50;99.90;;;;;;5024679;28;20817;-73
2022/06/23 03:42:36;;;;;;;31.63;24.00;;;17.40;99.90;;;;;;5022997;28;20925;-72
2022/06/23 03:45:17;;;;;;;33.03;23.73;;;17.70;99.90;;;;;;5022509;28;20914;-73
2022/06/23 03:47:57;;;;;;;34.50;23.97;;;17.80;99.90;;;;;;5030522;28;20966;-73
2022/06/23 03:50:36;;;;;;;32.70;23.93;;;17.90;99.90;;;;;;5025143;28;20508;-73
2022/06/23 03:53:11;;;;;;;30.73;24.40;;;17.90;99.90;;;;;;5021307;28;20420;-73
2022/06/23 03:55:41;;;;;;;31.90;24.47;;;18.30;99.90;;;;;;5023403;28;20493;-72
2022/06/23 03:58:38;;;;;;;28.50;24.03;;;18.00;99.90;;;;;;5023675;28;20506;-73
2022/06/23 04:01:14;;;;;;;31.83;22.87;;;18.10;99.90;;;;;;5020386;28;20434;-72
2022/06/23 04:04:01;;;;;;;34.40;24.67;;;18.20;99.90;;;;;;5030138;28;20982;-73
2022/06/23 04:06:34;;;;;;;33.53;24.37;;;18.20;99.90;;;;;;5027854;28;20899;-73
2022/06/23 04:09:32;;;;;;;29.40;23.43;;;18.30;99.90;;;;;;5028705;28;20535;-73
2022/06/23 04:12:15;;;;;;;31.33;24.67;;;18.40;99.90;;;;;;5030513;28;20890;-73
2022/06/23 04:14:59;;;;;;;30.30;23.73;;;18.50;99.90;;;;;;5026593;28;20459;-73
2022/06/23 04:17:55;;;;;;;35.97;25.20;;;18.50;99.90;;;;;;5026908;28;20589;-74
2022/06/23 04:20:29;;;;;;;34.00;24.40;;;18.60;99.90;;;;;;5018696;28;20432;-73
2022/06/23 04:23:20;;;;;;;33.97;25.03;;;18.70;99.90;;;;;;5023952;28;20432;-73
2022/06/23 04:25:56;;;;;;;29.60;24.97;;;18.70;99.90;;;;;;5027549;28;20520;-73
2022/06/23 04:28:29;;;;;;;32.97;25.37;;;18.90;99.90;;;;;;5023477;28;20504;-72
2022/06/23 04:30:58;;;;;;;38.80;26.73;;;18.90;99.90;;;;;;5030178;28;20437;-73
2022/06/23 04:33:25;;;;;;;37.37;26.90;;;19.00;99.90;;;;;;5031675;28;20440;-73
2022/06/23 04:35:58;;;;;;;35.03;27.63;;;19.00;99.90;;;;;;5026245;28;20533;-73
2022/06/23 04:38:36;;;;;;;42.40;28.80;;;19.00;99.90;;;;;;5023061;28;20464;-73
2022/06/23 04:41:26;;;;;;;43.97;30.53;;;19.00;99.90;;;;;;5021524;28;20491;-73
2022/06/23 04:44:24;;;;;;;47.27;32.07;;;19.10;99.90;;;;;;5023785;28;20434;-73
2022/06/23 04:47:00;;;;;;;54.73;33.23;;;19.20;99.90;;;;;;5029024;28;20468;-73
2022/06/23 04:49:28;;;;;;;51.73;33.87;;;19.30;99.90;;;;;;5021216;28;20485;-74
2022/06/23 04:52:26;;;;;;;53.63;34.77;;;19.40;99.90;;;;;;5028161;28;20420;-74
2022/06/23 04:55:06;;;;;;;52.20;34.93;;;19.50;99.90;;;;;;5027179;28;20480;-73
2022/06/23 04:57:46;;;;;;;50.17;34.80;;;19.50;99.90;;;;;;5026613;28;20910;-73
2022/06/23 05:00:29;;;;;;;52.07;35.17;;;19.60;99.90;;;;;;5024174;28;20460;-73
2022/06/23 05:03:11;;;;;;;54.47;34.40;;;19.70;99.90;;;;;;5029481;28;20961;-73
2022/06/23 05:05:37;;;;;;;57.33;37.07;;;21.00;99.90;;;;;;5024443;28;20578;-73
2022/06/23 05:08:14;;;;;;;64.17;36.20;;;20.00;99.90;;;;;;5028819;28;20452;-73
2022/06/23 05:10:51;;;;;;;56.17;34.50;;;20.40;99.90;;;;;;5025547;28;20903;-73
2022/06/23 05:13:23;;;;;;;51.60;34.20;;;20.10;99.90;;;;;;5027189;28;20432;-74
2022/06/23 05:15:57;;;;;;;52.40;33.10;;;20.20;99.90;;;;;;5028002;28;20526;-73
2022/06/23 05:18:31;;;;;;;54.07;32.73;;;20.20;99.90;;;;;;5026683;28;20416;-73
2022/06/23 05:21:06;;;;;;;47.73;32.90;;;20.30;99.90;;;;;;5024019;28;20454;-73
2022/06/23 05:24:00;;;;;;;39.50;29.63;;;20.50;99.90;;;;;;5018086;28;20433;-73
2022/06/23 05:26:47;;;;;;;48.53;32.53;;;20.80;99.90;;;;;;5023908;28;20424;-74
2022/06/23 05:29:18;;;;;;;46.33;31.07;;;20.90;99.90;;;;;;5024629;28;20443;-73
2022/06/23 05:31:47;;;;;;;47.03;31.03;;;21.20;99.90;;;;;;5027391;28;20937;-74
2022/06/23 05:34:23;;;;;;;46.83;31.00;;;21.30;99.90;;;;;;5026480;28;20432;-73
2022/06/23 05:36:58;;;;;;;48.03;32.67;;;21.40;99.90;;;;;;5026878;28;20678;-74
2022/06/23 05:40:14;;;;;;;49.00;31.07;;;21.50;99.90;;;;;;5021903;28;20551;-73
2022/06/23 05:42:43;;;;;;;44.60;30.55;;;21.60;99.90;;;;;;4997127;28;20746;-74
2022/06/23 05:45:27;;;;;;;43.33;29.93;;;21.60;99.90;;;;;;5027507;28;20228;-72
2022/06/23 05:47:54;;;;;;;39.40;29.23;;;21.60;99.90;;;;;;5007933;28;20483;-72
2022/06/23 05:50:57;;;;;;;47.70;30.07;;;21.70;99.90;;;;;;5008447;28;20424;-73
2022/06/23 05:54:04;;;;;;;44.83;28.30;;;21.60;99.90;;;;;;4986850;28;20425;-73
2022/06/23 05:56:46;;;;;;;42.20;28.70;;;21.50;99.90;;;;;;5008123;28;20708;-73
2022/06/23 05:59:20;;;;;;;44.30;27.27;;;21.40;99.90;;;;;;5019418;28;20862;-73
2022/06/23 06:01:55;;;;;;;40.60;26.83;;;21.30;99.90;;;;;;5029160;28;20455;-77
2022/06/23 06:04:29;;;;;;;32.83;23.27;;;21.30;99.90;;;;;;5029028;28;20501;-77
2022/06/23 06:06:55;;;;;;;38.83;27.10;;;21.30;99.90;;;;;;5045856;28;20524;-77
2022/06/23 06:09:35;;;;;;;36.20;25.73;;;21.40;99.90;;;;;;5011864;28;20555;-78
2022/06/23 06:12:05;;;;;;;37.13;24.10;;;21.50;99.90;;;;;;5009902;28;20421;-77
2022/06/23 06:14:33;;;;;;;28.13;22.93;;;21.50;99.90;;;;;;5024699;28;20416;-76
2022/06/23 06:17:00;;;;;;;32.07;24.00;;;21.90;99.90;;;;;;5020093;28;20493;-78
2022/06/23 06:19:29;;;;;;;31.73;23.73;;;21.80;99.90;;;;;;5014438;28;20825;-75
2022/06/23 06:21:58;;;;;;;32.80;21.60;;;21.90;99.90;;;;;;5027139;28;20439;-73
2022/06/23 06:24:38;;;;;;;32.80;22.10;;;22.20;99.90;;;;;;5027664;28;20408;-74
2022/06/23 06:27:09;;;;;;;32.30;22.77;;;22.00;99.90;;;;;;5029279;28;20909;-73
2022/06/23 06:29:38;;;;;;;31.57;23.30;;;22.10;99.90;;;;;;5034674;28;20657;-73
2022/06/23 06:32:26;;;;;;;27.00;22.47;;;22.10;99.90;;;;;;5036247;28;20419;-73
2022/06/23 06:34:55;;;;;;;30.23;21.40;;;22.10;99.90;;;;;;5027308;28;20428;-72
2022/06/23 06:37:28;;;;;;;30.17;22.57;;;22.20;99.90;;;;;;5028423;28;20451;-73
2022/06/23 06:39:59;;;;;;;32.07;21.30;;;22.30;99.90;;;;;;5026121;28;20950;-73
2022/06/23 06:42:29;;;;;;;29.97;20.93;;;22.40;99.90;;;;;;5021692;28;20428;-74
2022/06/23 06:44:56;;;;;;;40.27;23.47;;;22.50;99.90;;;;;;5020817;28;20508;-73
2022/06/23 06:47:28;;;;;;;30.90;21.50;;;22.60;99.90;;;;;;5015839;28;20846;-73
2022/06/23 06:49:57;;;;;;;31.63;21.47;;;22.80;99.90;;;;;;5017808;28;20432;-73
2022/06/23 06:52:23;;;;;;;29.10;20.70;;;23.00;99.90;;;;;;5012508;28;20435;-73
2022/06/23 06:54:58;;;;;;;33.53;21.10;;;23.30;99.90;;;;;;5023679;28;20420;-73
2022/06/23 06:57:33;;;;;;;29.67;20.73;;;23.50;99.90;;;;;;5028497;28;20806;-73
2022/06/23 07:00:45;;;;;;;38.30;21.37;;;23.60;99.90;;;;;;5035443;28;20508;-73
2022/06/23 07:03:15;;;;;;;30.77;20.30;;;23.50;99.90;;;;;;5005173;28;20433;-73
2022/06/23 07:05:51;;;;;;;24.00;18.20;;;23.50;99.90;;;;;;5024912;28;20929;-73
2022/06/23 07:08:28;;;;;;;33.80;19.10;;;23.90;98.20;;;;;;5013239;28;20697;-75
2022/06/23 07:11:11;;;;;;;27.63;19.37;;;24.20;94.50;;;;;;5020316;28;20809;-73
2022/06/23 07:13:55;;;;;;;30.70;18.50;;;24.30;90.40;;;;;;5021903;28;20436;-73
2022/06/23 07:16:37;;;;;;;28.33;18.73;;;24.40;87.30;;;;;;5018080;28;20449;-73
2022/06/23 07:19:22;;;;;;;27.90;19.07;;;24.40;83.10;;;;;;5020921;28;20436;-75
2022/06/23 07:22:06;;;;;;;29.17;19.00;;;24.50;82.60;;;;;;5024383;28;20948;-76
2022/06/23 07:24:41;;;;;;;31.13;19.67;;;24.60;81.40;;;;;;5027131;28;20436;-75
2022/06/23 07:27:16;;;;;;;27.23;18.40;;;24.70;68.10;;;;;;5023957;28;20502;-76
2022/06/23 07:30:00;;;;;;;29.20;19.17;;;24.80;65.20;;;;;;5031953;28;20425;-76
2022/06/23 07:32:57;;;;;;;30.07;18.17;;;24.60;67.80;;;;;;5010485;28;20886;-76
2022/06/23 07:35:25;;;;;;;29.60;20.30;;;24.70;65.60;;;;;;5016636;28;20818;-75
2022/06/23 07:38:11;;;;;;;29.60;18.53;;;24.90;55.70;;;;;;5014972;28;20520;-75
2022/06/23 07:40:47;;;;;;;25.67;18.53;;;25.00;52.10;;;;;;5007734;28;20503;-75
2022/06/23 07:43:34;;;;;;;28.60;18.00;;;25.20;50.70;;;;;;5007705;28;20479;-76
2022/06/23 07:46:01;;;;;;;32.60;20.50;;;25.30;50.90;;;;;;5008906;28;20528;-75
2022/06/23 07:48:31;;;;;;;27.10;19.60;;;25.30;50.70;;;;;;5009505;28;20586;-78
2022/06/23 07:50:57;;;;;;;29.27;19.37;;;25.30;50.80;;;;;;5032757;28;20500;-76
2022/06/23 07:53:27;;;;;;;25.20;18.93;;;25.40;50.80;;;;;;5012606;28;20543;-75
2022/06/23 07:55:53;;;;;;;35.13;19.90;;;25.60;51.00;;;;;;5021650;28;20460;-75
2022/06/23 07:58:23;;;;;;;27.73;17.60;;;25.60;47.30;;;;;;5024516;28;20479;-75
2022/06/23 08:00:55;;;;;;;32.60;18.20;;;25.50;50.90;;;;;;5027308;28;20201;-75
2022/06/23 08:03:33;;;;;;;27.90;19.73;;;25.40;50.40;;;;;;5031330;28;20589;-76
2022/06/23 08:06:04;;;;;;;25.67;16.87;;;25.70;45.00;;;;;;5026198;28;20416;-74
2022/06/23 08:08:33;;;;;;;28.67;19.43;;;25.80;45.50;;;;;;5017072;28;20552;-75
2022/06/23 08:14:07;;;;;;;24.67;17.23;;;26.00;33.00;;;;;;5026166;28;20415;-73
2022/06/23 08:16:51;;;;;;;29.53;18.40;;;25.90;37.70;;;;;;5007995;28;20468;-73
2022/06/23 08:19:31;;;;;;;33.07;21.00;;;26.00;38.00;;;;;;5016997;28;20600;-73
2022/06/23 08:22:12;;;;;;;26.27;17.87;;;26.40;36.00;;;;;;5020567;28;20434;-74
2022/06/23 08:24:40;;;;;;;29.63;18.00;;;27.00;26.70;;;;;;5020499;28;20440;-74
2022/06/23 08:27:10;;;;;;;29.83;18.03;;;27.10;25.40;;;;;;5023923;28;20434;-74
2022/06/23 08:29:53;;;;;;;32.63;18.60;;;27.10;19.40;;;;;;5030700;28;20526;-74
2022/06/23 08:32:20;;;;;;;29.10;17.93;;;27.10;21.20;;;;;;5024198;28;20416;-74
2022/06/23 08:34:49;;;;;;;25.73;18.50;;;27.50;17.60;;;;;;5022578;28;20543;-74
2022/06/23 08:37:21;;;;;;;30.10;17.90;;;27.90;14.30;;;;;;5024880;28;20833;-74
2022/06/23 08:39:59;;;;;;;25.23;16.77;;;27.90;11.90;;;;;;5029094;28;20818;-74
2022/06/23 08:42:27;;;;;;;26.03;16.20;;;28.10;9.80;;;;;;5026999;28;20812;-73
2022/06/23 08:45:30;;;;;;;24.77;15.60;;;28.20;6.70;;;;;;5028811;28;20957;-74
2022/06/23 08:48:11;;;;;;;24.47;16.87;;;28.20;7.80;;;;;;5022504;28;20478;-74
2022/06/23 08:50:42;;;;;;;22.83;15.10;;;28.30;5.80;;;;;;5026621;28;20249;-74
2022/06/23 08:53:36;;;;;;;24.13;15.33;;;28.50;4.60;;;;;;5021500;28;20252;-74
2022/06/23 08:56:07;;;;;;;25.27;16.37;;;28.70;1.00;;;;;;5015389;28;20688;-74
2022/06/23 08:58:44;;;;;;;22.03;16.37;;;28.80;1.00;;;;;;5025218;28;20281;-74
2022/06/23 09:01:21;;;;;;;31.57;17.83;;;28.60;1.00;;;;;;5030078;28;20418;-73
2022/06/23 09:04:03;;;;;;;25.77;15.17;;;28.70;1.00;;;;;;5018711;28;20182;-73
2022/06/23 09:06:40;;;;;;;19.80;14.00;;;29.20;1.00;;;;;;5010898;28;20518;-74
2022/06/23 09:09:30;;;;;;;24.00;14.93;;;29.50;1.00;;;;;;5009997;28;20656;-73
2022/06/23 09:12:34;;;;;;;22.23;13.33;;;29.70;1.00;;;;;;5022920;28;20272;-73
2022/06/23 09:15:06;;;;;;;19.17;14.20;;;31.00;1.00;;;;;;5019115;28;20225;-75
2022/06/23 09:17:46;;;;;;;21.60;13.90;;;32.10;1.00;;;;;;5026492;28;20220;-75
2022/06/23 09:20:46;;;;;;;19.42;14.90;;;33.40;1.00;;;;;;5025333;28;20213;-74
2022/06/23 09:23:40;;;;;;;20.10;13.35;;;34.50;1.00;;;;;;5022258;28;20173;-75
2022/06/23 09:26:24;;;;;;;19.90;13.57;;;35.10;1.00;;;;;;5017786;28;20178;-76
2022/06/23 09:29:18;;;;;;;20.65;13.70;;;35.40;1.00;;;;;;5016429;28;20311;-73
2022/06/23 09:31:43;;;;;;;18.20;13.40;;;35.90;1.00;;;;;;5026126;28;20177;-74
2022/06/23 09:34:24;;;;;;;22.77;13.65;;;36.30;1.00;;;;;;5021158;28;20170;-73
2022/06/23 09:37:25;;;;;;;18.75;12.65;;;36.70;1.00;;;;;;5018216;28;20205;-73
2022/06/23 09:40:19;;;;;;;16.98;11.35;;;36.50;1.00;;;;;;5008467;28;20182;-73
2022/06/23 09:43:03;;;;;;;18.00;12.30;;;36.40;1.00;;;;;;5009315;28;20213;-74
2022/06/23 09:45:36;;;;;;;17.15;11.60;;;36.50;1.00;;;;;;5009803;28;20170;-73
2022/06/23 09:48:08;;;;;;;16.92;12.02;;;36.70;1.00;;;;;;5026205;28;20212;-73
2022/06/23 09:50:53;;;;;;;21.33;12.07;;;36.80;1.00;;;;;;5028854;28;20188;-74
2022/06/23 09:53:53;;;;;;;17.65;12.38;;;37.10;1.00;;;;;;5017368;28;20231;-73
2022/06/23 09:56:52;;;;;;;14.70;11.85;;;37.50;1.00;;;;;;5023270;28;20211;-74
2022/06/23 09:59:35;;;;;;;17.60;11.85;;;37.50;1.00;;;;;;5025380;28;20235;-73
2022/06/23 10:02:39;;;;;;;17.38;11.45;;;38.00;1.00;;;;;;5028558;28;20174;-73
2022/06/23 10:05:18;;;;;;;18.58;11.73;;;38.20;1.00;;;;;;5010226;28;20656;-73
2022/06/23 10:08:04;;;;;;;14.23;10.95;;;38.20;1.00;;;;;;5026014;28;20178;-73
2022/06/23 10:11:07;;;;;;;18.75;11.95;;;39.00;1.00;;;;;;5020225;28;20181;-73
2022/06/23 10:13:36;;;;;;;16.02;11.40;;;39.80;1.00;;;;;;5019856;28;20185;-74
2022/06/23 10:16:33;;;;;;;17.52;10.57;;;40.20;1.00;;;;;;5017401;28;20213;-74
2022/06/23 10:19:08;;;;;;;19.27;10.85;;;39.80;1.00;;;;;;5018614;28;20275;-74
2022/06/23 10:21:57;;;;;;;15.57;10.80;;;39.80;1.00;;;;;;5013580;28;20276;-74
2022/06/23 10:24:34;;;;;;;17.95;10.15;;;39.30;1.00;;;;;;5023281;28;20765;-74
2022/06/23 10:27:31;;;;;;;18.63;11.70;;;39.20;1.00;;;;;;5022568;28;20639;-74
2022/06/23 10:30:12;;;;;;;16.52;11.38;;;39.20;1.00;;;;;;5031993;28;20205;-74
2022/06/23 10:33:16;;;;;;;16.65;11.80;;;39.20;1.00;;;;;;5016880;28;20509;-74
2022/06/23 10:36:27;;;;;;;16.23;9.80;;;37.40;1.00;;;;;;4969108;28;20512;-74
2022/06/23 10:39:23;;;;;;;14.27;9.18;;;39.70;1.00;;;;;;4970283;28;20234;-74
2022/06/23 10:42:07;;;;;;;15.13;8.57;;;40.20;1.00;;;;;;5020243;28;20641;-74
2022/06/23 10:44:59;;;;;;;14.35;7.90;;;40.60;1.00;;;;;;5016046;28;20323;-74
2022/06/23 10:47:35;;;;;;;15.52;7.97;;;41.80;1.00;;;;;;5023750;28;20521;-73
2022/06/23 10:50:17;;;;;;;15.77;8.23;;;42.40;1.00;;;;;;5023770;28;20280;-74
2022/06/23 10:53:10;;;;;;;15.20;7.88;;;43.00;1.00;;;;;;5025382;28;20193;-74
2022/06/23 10:55:57;;;;;;;18.50;7.88;;;43.80;1.00;;;;;;5021523;28;20615;-72
2022/06/23 10:58:30;;;;;;;13.32;7.85;;;44.60;1.00;;;;;;5020647;28;20228;-74
2022/06/23 11:01:17;;;;;;;13.35;7.68;;;45.30;1.00;;;;;;5018583;28;20264;-74
2022/06/23 11:04:20;;;;;;;17.02;8.00;;;45.40;1.00;;;;;;5024143;28;20268;-74
2022/06/23 11:07:00;;;;;;;16.85;8.20;;;44.00;1.00;;;;;;5025741;28;20388;-75
2022/06/23 11:09:53;;;;;;;13.25;8.13;;;42.90;1.00;;;;;;5025689;28;20289;-74
2022/06/23 11:12:37;;;;;;;16.60;7.68;;;42.10;1.00;;;;;;5026408;28;20264;-74
2022/06/23 11:15:17;;;;;;;10.48;7.10;;;40.80;1.00;;;;;;5020036;28;20177;-74
2022/06/23 11:17:57;;;;;;;14.23;8.00;;;40.40;1.00;;;;;;5021660;28;20698;-75
2022/06/23 11:21:00;;;;;;;12.55;7.43;;;41.90;1.00;;;;;;5014688;28;20624;-74
2022/06/23 11:23:49;;;;;;;10.25;6.63;;;42.80;1.00;;;;;;5021378;28;20173;-75
2022/06/23 11:26:23;;;;;;;14.65;6.90;;;42.50;1.00;;;;;;5028644;28;20836;-74
2022/06/23 11:29:17;;;;;;;9.98;7.18;;;42.40;1.00;;;;;;5027284;28;20228;-74
2022/06/23 11:32:06;;;;;;;14.05;6.78;;;40.60;1.00;;;;;;5037048;28;20227;-75
2022/06/23 11:34:43;;;;;;;14.50;6.65;;;38.90;1.00;;;;;;5028573;28;20172;-74
2022/06/23 11:37:24;;;;;;;12.82;6.43;;;38.30;1.00;;;;;;5007080;28;20205;-75
2022/06/23 11:39:56;;;;;;;12.88;6.88;;;38.20;1.00;;;;;;5014297;28;20433;-76
2022/06/23 11:43:00;;;;;;;13.95;6.90;;;39.60;1.00;;;;;;5022221;28;20260;-76
2022/06/23 11:45:36;;;;;;;11.77;6.53;;;41.20;1.00;;;;;;5003697;28;20263;-77
2022/06/23 11:48:18;;;;;;;12.80;6.60;;;42.40;1.00;;;;;;5013971;28;20182;-77
2022/06/23 11:51:02;;;;;;;9.15;5.95;;;42.40;1.00;;;;;;5014241;28;20187;-77
2022/06/23 11:53:27;;;;;;;9.88;5.13;;;42.60;1.00;;;;;;5018017;28;20212;-76
2022/06/23 11:55:58;;;;;;;12.10;5.13;;;42.20;1.00;;;;;;5027798;28;20565;-76
2022/06/23 11:58:32;;;;;;;8.32;4.70;;;42.50;1.00;;;;;;5023129;28;20213;-77
2022/06/23 12:01:01;;;;;;;16.13;6.40;;;42.90;1.00;;;;;;5031509;28;20177;-75
2022/06/23 12:03:53;;;;;;;13.07;4.97;;;43.00;1.00;;;;;;5019227;28;20253;-74
2022/06/23 12:06:55;;;;;;;9.30;4.38;;;42.10;1.00;;;;;;5026019;28;20185;-75
2022/06/23 12:09:58;;;;;;;14.15;4.97;;;41.10;1.00;;;;;;5017322;28;20208;-75
2022/06/23 12:12:24;;;;;;;14.20;5.10;;;38.70;1.00;;;;;;5014554;28;20169;-74
2022/06/23 12:14:51;;;;;;;11.10;4.60;;;38.10;1.00;;;;;;5027534;28;20186;-75
2022/06/23 12:17:28;;;;;;;9.10;4.93;;;39.60;1.00;;;;;;5035260;28;20193;-74
2022/06/23 12:20:06;;;;;;;14.07;5.35;;;41.00;1.00;;;;;;5023429;28;20489;-74
2022/06/23 12:22:41;;;;;;;9.77;4.80;;;41.10;1.00;;;;;;5024842;28;20252;-75
2022/06/23 12:25:20;;;;;;;11.18;4.40;;;41.40;1.00;;;;;;5026623;28;20166;-76
2022/06/23 12:28:01;;;;;;;10.23;4.15;;;42.40;1.00;;;;;;5043699;28;20180;-74
2022/06/23 12:30:32;;;;;;;7.20;3.85;;;44.20;1.00;;;;;;5037139;28;20511;-75
2022/06/23 12:33:13;;;;;;;9.60;3.92;;;45.80;1.00;;;;;;5032206;28;20271;-75
2022/06/23 12:36:09;;;;;;;9.35;3.80;;;46.20;1.00;;;;;;5027440;28;20204;-75
2022/06/23 12:38:46;;;;;;;11.15;4.20;;;46.70;1.00;;;;;;5034360;28;20185;-74
2022/06/23 12:41:33;;;;;;;10.80;4.47;;;45.60;1.00;;;;;;5031572;28;20220;-75
2022/06/23 12:44:18;;;;;;;13.00;4.53;;;44.40;1.00;;;;;;5026523;28;20200;-76
2022/06/23 12:47:11;;;;;;;8.75;3.75;;;44.40;1.00;;;;;;5032828;28;20203;-75
2022/06/23 12:50:02;;;;;;;9.30;3.70;;;44.80;1.00;;;;;;5032276;28;20189;-74
2022/06/23 12:53:02;;;;;;;9.20;3.50;;;45.20;1.00;;;;;;5032023;28;20197;-75
2022/06/23 12:55:39;;;;;;;12.07;4.25;;;45.20;1.00;;;;;;5032364;28;20235;-74
2022/06/23 12:58:23;;;;;;;12.75;3.90;;;45.20;1.00;;;;;;5012040;28;20169;-75
2022/06/23 13:01:14;;;;;;;10.25;3.88;;;45.20;1.00;;;;;;5036498;28;20247;-75
2022/06/23 13:03:42;;;;;;;9.30;3.42;;;46.20;1.00;;;;;;5033323;28;20169;-76
2022/06/23 13:06:22;;;;;;;6.90;3.40;;;46.80;1.00;;;;;;5032917;28;20193;-74
2022/06/23 13:09:03;;;;;;;9.93;3.63;;;46.80;1.00;;;;;;5031714;28;20254;-74
2022/06/23 13:11:50;;;;;;;9.45;3.47;;;47.00;1.00;;;;;;5032756;28;20356;-75
2022/06/23 13:14:58;;;;;;;11.15;4.03;;;46.00;1.00;;;;;;5027427;28;20202;-74
2022/06/23 13:17:40;;;;;;;9.43;3.20;;;45.20;1.00;;;;;;5026823;28;20311;-74
2022/06/23 13:20:42;;;;;;;7.93;3.25;;;44.70;1.00;;;;;;5032253;28;20178;-75
2022/06/23 13:23:14;;;;;;;10.15;3.38;;;45.30;1.00;;;;;;5025611;28;20747;-74
2022/06/23 13:25:51;;;;;;;9.82;3.42;;;45.20;1.00;;;;;;5013552;28;20197;-74
2022/06/23 13:28:37;;;;;;;15.93;3.08;;;45.40;1.00;;;;;;5015800;28;20208;-74
2022/06/23 13:31:18;;;;;;;9.23;3.40;;;45.00;1.00;;;;;;5036945;28;20176;-76
2022/06/23 13:34:00;;;;;;;15.98;4.20;;;44.50;1.00;;;;;;5048923;28;20495;-74
2022/06/23 13:36:41;;;;;;;16.05;3.78;;;44.80;1.00;;;;;;5029083;28;20301;-74
2022/06/23 13:39:24;;;;;;;14.55;4.00;;;45.50;1.00;;;;;;5011379;28;20194;-74
2022/06/23 13:42:25;;;;;;;8.98;3.33;;;44.90;1.00;;;;;;5012532;28;20223;-75
2022/06/23 13:44:59;;;;;;;10.88;3.47;;;45.60;1.00;;;;;;5014464;28;20544;-74
2022/06/23 13:47:34;;;;;;;9.35;3.72;;;45.60;1.00;;;;;;5013084;28;20189;-74